Time;durP1;ratioP1;P1;durP2;ratioP2;P2;SDS_P1;SDS_P2;PMS_P1;PMS_P2;Temp;Humidity;BMP_temperature;BMP_pressure;BME280_temperature;BME280_humidity;BME280_pressure;Samples;Min_cycle;Max_cycle;Signal;HPM_P1;HPM_P2
2022/04/08 00:00:27;;;;;;;37.63;29.15;;;;;;;10.92;100.00;99517.69;5056575;28;20029;-79
2022/04/08 00:03:13;;;;;;;38.80;29.85;;;;;;;10.87;100.00;99513.53;5056439;28;20035;-78
2022/04/08 00:05:59;;;;;;;47.85;32.00;;;;;;;10.87;100.00;99513.53;5056722;28;20029;-78
2022/04/08 00:08:46;;;;;;;41.13;31.25;;;;;;;11.09;100.00;99514.44;5056234;28;20084;-78
2022/04/08 00:11:32;;;;;;;41.75;31.20;;;;;;;10.70;100.00;99511.56;5056838;28;20468;-79
2022/04/08 00:14:20;;;;;;;46.40;32.63;;;;;;;10.96;100.00;99518.41;5056321;28;20102;-78
2022/04/08 00:17:06;;;;;;;43.58;30.73;;;;;;;10.85;100.00;99520.59;5056537;28;20082;-78
2022/04/08 00:19:52;;;;;;;44.13;32.15;;;;;;;11.33;100.00;99510.84;5055679;28;20146;-80
2022/04/08 00:22:40;;;;;;;39.78;30.83;;;;;;;11.06;100.00;99514.53;5055170;28;20056;-79
2022/04/08 00:25:26;;;;;;;47.35;31.27;;;;;;;11.21;100.00;99520.03;5057578;28;20040;-80
2022/04/08 00:28:11;;;;;;;44.30;32.35;;;;;;;11.06;100.00;99522.41;5042696;28;20031;-79
2022/04/08 00:30:57;;;;;;;49.17;30.52;;;;;;;11.04;100.00;99518.97;5042632;28;20516;-79
2022/04/08 00:33:43;;;;;;;37.75;29.02;;;;;;;11.18;100.00;99520.19;5056034;28;20048;-78
2022/04/08 00:36:29;;;;;;;39.28;30.50;;;;;;;11.25;100.00;99528.66;5041146;28;20036;-78
2022/04/08 00:39:14;;;;;;;39.25;27.98;;;;;;;11.38;100.00;99524.63;5056096;28;20104;-79
2022/04/08 00:42:00;;;;;;;40.47;28.58;;;;;;;11.44;100.00;99527.00;5056530;28;20105;-78
2022/04/08 00:44:46;;;;;;;41.08;28.30;;;;;;;11.52;100.00;99532.78;5040998;28;20071;-79
2022/04/08 00:47:35;;;;;;;34.80;27.20;;;;;;;11.19;100.00;99523.63;5044101;28;20028;-78
2022/04/08 00:50:22;;;;;;;39.35;28.35;;;;;;;11.07;100.00;99530.22;5056960;28;20036;-77
2022/04/08 00:53:08;;;;;;;40.95;27.83;;;;;;;11.34;100.00;99526.53;5056758;28;20029;-77
2022/04/08 00:55:54;;;;;;;37.80;27.05;;;;;;;11.23;100.00;99533.94;5055648;28;20029;-79
2022/04/08 00:58:40;;;;;;;39.58;28.65;;;;;;;11.30;100.00;99539.81;5057128;28;20031;-78
2022/04/08 01:01:26;;;;;;;38.83;28.38;;;;;;;11.46;100.00;99543.53;5043381;28;20025;-78
2022/04/08 01:04:12;;;;;;;38.70;27.75;;;;;;;11.37;100.00;99549.97;5043899;28;20029;-79
2022/04/08 01:06:58;;;;;;;37.15;27.05;;;;;;;11.21;100.00;99548.88;5057320;28;20039;-79
2022/04/08 01:09:44;;;;;;;42.75;29.08;;;;;;;11.31;100.00;99546.75;5056077;28;20059;-78
2022/04/08 01:12:30;;;;;;;35.28;27.23;;;;;;;11.32;100.00;99546.69;5056913;28;20104;-79
2022/04/08 01:15:17;;;;;;;36.88;28.38;;;;;;;11.40;100.00;99546.38;5041373;28;20469;-79
2022/04/08 01:18:05;;;;;;;36.25;26.88;;;;;;;11.67;100.00;99538.31;5056077;28;20039;-79
2022/04/08 01:20:51;;;;;;;36.05;27.35;;;;;;;11.35;100.00;99538.72;5055917;28;20464;-79
2022/04/08 01:23:37;;;;;;;36.25;26.00;;;;;;;11.44;100.00;99546.22;5056367;28;20126;-78
2022/04/08 01:26:23;;;;;;;37.28;26.17;;;;;;;11.55;100.00;99544.03;5056630;28;20029;-79
2022/04/08 01:29:09;;;;;;;37.47;26.38;;;;;;;11.64;100.00;99545.44;5059763;28;20029;-77
2022/04/08 01:31:55;;;;;;;34.67;26.33;;;;;;;11.78;100.00;99551.84;5042971;28;20024;-78
2022/04/08 01:34:42;;;;;;;36.17;26.25;;;;;;;11.75;100.00;99556.38;5058018;28;20024;-77
2022/04/08 01:37:28;;;;;;;35.15;26.67;;;;;;;11.44;100.00;99554.09;5056654;28;20135;-77
2022/04/08 01:40:14;;;;;;;35.05;25.75;;;;;;;11.50;100.00;99556.47;5057609;28;20032;-77
2022/04/08 01:43:00;;;;;;;36.97;26.30;;;;;;;11.37;100.00;99557.84;5060455;28;20033;-80
2022/04/08 01:45:45;;;;;;;34.25;25.70;;;;;;;11.75;100.00;99567.72;5041468;28;20037;-79
2022/04/08 01:48:31;;;;;;;36.20;25.58;;;;;;;11.63;100.00;99560.34;5056689;28;20039;-80
2022/04/08 01:51:17;;;;;;;36.13;26.58;;;;;;;11.88;100.00;99553.19;5058862;28;20024;-80
2022/04/08 01:54:03;;;;;;;37.92;26.85;;;;;;;11.88;100.00;99547.94;5057348;28;20029;-79
2022/04/08 01:56:48;;;;;;;39.05;27.65;;;;;;;11.67;100.00;99548.81;5045771;28;20469;-77
2022/04/08 01:59:34;;;;;;;37.58;26.67;;;;;;;11.87;100.00;99555.88;5062645;28;20108;-78
2022/04/08 02:02:20;;;;;;;35.13;26.38;;;;;;;11.61;100.00;99553.47;5060487;28;20027;-78
2022/04/08 02:05:06;;;;;;;36.72;27.67;;;;;;;11.70;100.00;99567.03;5054971;28;20029;-80
2022/04/08 02:07:53;;;;;;;37.95;27.40;;;;;;;11.53;100.00;99563.38;5054724;28;20464;-79
2022/04/08 02:10:39;;;;;;;36.03;26.38;;;;;;;11.64;100.00;99569.91;5039316;28;20087;-79
2022/04/08 02:13:25;;;;;;;39.88;26.40;;;;;;;11.89;100.00;99568.00;5054171;28;20049;-80
2022/04/08 02:16:10;;;;;;;34.22;26.45;;;;;;;11.83;100.00;99567.41;5040636;28;20067;-79
2022/04/08 02:18:57;;;;;;;38.15;26.90;;;;;;;11.89;100.00;99568.00;5053745;28;20037;-79
2022/04/08 02:21:44;;;;;;;35.22;26.98;;;;;;;11.64;100.00;99572.53;5053688;28;20020;-79
2022/04/08 02:24:29;;;;;;;39.03;27.85;;;;;;;11.74;100.00;99571.25;5054254;28;20105;-79
2022/04/08 02:27:15;;;;;;;38.63;26.23;;;;;;;11.78;100.00;99570.19;5053728;28;20086;-80
2022/04/08 02:30:01;;;;;;;34.35;26.98;;;;;;;11.63;100.00;99569.97;5053881;28;20036;-80
2022/04/08 02:32:47;;;;;;;37.40;27.55;;;;;;;11.75;100.00;99575.59;5039694;28;20024;-79
2022/04/08 02:35:33;;;;;;;36.53;27.52;;;;;;;11.64;100.00;99577.78;5054202;28;20365;-80
2022/04/08 02:38:19;;;;;;;37.35;26.55;;;;;;;11.42;100.00;99582.16;5054031;28;20021;-79
2022/04/08 02:41:04;;;;;;;37.13;28.02;;;;;;;11.62;100.00;99579.59;5039370;28;20025;-78
2022/04/08 02:43:50;;;;;;;34.08;26.20;;;;;;;11.29;100.00;99585.28;5038938;28;20028;-80
2022/04/08 02:46:36;;;;;;;35.58;26.10;;;;;;;11.20;100.00;99583.88;5053381;28;20457;-79
2022/04/08 02:49:21;;;;;;;36.75;26.65;;;;;;;11.12;100.00;99592.91;5053589;28;20033;-79
2022/04/08 02:52:07;;;;;;;40.05;27.17;;;;;;;11.11;100.00;99593.84;5039327;28;20021;-79
2022/04/08 02:54:53;;;;;;;36.38;27.17;;;;;;;11.08;100.00;99589.56;5053731;28;20438;-80
2022/04/08 02:57:46;;;;;;;37.28;26.65;;;;;;;10.96;100.00;99594.41;5053642;28;20166;-79
2022/04/08 03:00:31;;;;;;;41.97;28.08;;;;;;;10.97;100.00;99606.63;5038531;28;20025;-79
2022/04/08 03:03:17;;;;;;;39.15;27.88;;;;;;;11.05;100.00;99613.25;5052738;28;20052;-80
2022/04/08 03:06:03;;;;;;;39.65;27.15;;;;;;;10.97;100.00;99607.44;5054671;28;20056;-80
2022/04/08 03:08:49;;;;;;;35.70;26.42;;;;;;;10.94;100.00;99618.06;5038744;28;20025;-80
2022/04/08 03:11:34;;;;;;;38.78;27.17;;;;;;;11.00;100.00;99615.22;5053699;28;20422;-80
2022/04/08 03:14:20;;;;;;;33.63;24.90;;;;;;;10.91;100.00;99604.19;5037987;28;20053;-79
2022/04/08 03:17:06;;;;;;;37.58;26.17;;;;;;;10.97;100.00;99612.69;5053103;28;20033;-79
2022/04/08 03:19:52;;;;;;;33.35;25.17;;;;;;;10.97;100.00;99615.31;5053965;28;20037;-79
2022/04/08 03:22:38;;;;;;;32.83;24.20;;;;;;;10.88;100.00;99620.91;5053451;28;20105;-79
2022/04/08 03:25:24;;;;;;;36.13;24.33;;;;;;;10.95;100.00;99635.50;5054375;28;20068;-79
2022/04/08 03:28:10;;;;;;;35.42;24.40;;;;;;;10.95;100.00;99639.88;5053449;28;20029;-80
2022/04/08 03:30:55;;;;;;;30.88;23.80;;;;;;;10.88;100.00;99643.63;5053266;28;20056;-79
2022/04/08 03:33:41;;;;;;;33.63;24.10;;;;;;;10.70;100.00;99646.88;5052924;28;20025;-79
2022/04/08 03:36:27;;;;;;;33.60;23.70;;;;;;;10.82;100.00;99659.56;5053659;28;20037;-80
2022/04/08 03:39:14;;;;;;;33.47;24.42;;;;;;;10.83;100.00;99662.13;5053062;28;20107;-80
2022/04/08 03:42:00;;;;;;;33.55;22.60;;;;;;;11.03;100.00;99658.78;5053341;28;20125;-80
2022/04/08 03:44:46;;;;;;;33.58;23.45;;;;;;;10.81;100.00;99663.09;5053037;28;20060;-80
2022/04/08 03:47:32;;;;;;;31.17;23.98;;;;;;;10.78;100.00;99668.44;5053114;28;20025;-80
2022/04/08 03:50:18;;;;;;;40.08;27.10;;;;;;;11.01;100.00;99681.59;5053221;28;20028;-79
2022/04/08 03:53:03;;;;;;;35.92;23.92;;;;;;;11.03;100.00;99678.00;5053772;28;20031;-80
2022/04/08 03:55:49;;;;;;;33.45;22.92;;;;;;;10.82;100.00;99683.13;5038784;28;20364;-80
2022/04/08 03:58:35;;;;;;;31.27;22.85;;;;;;;10.82;100.00;99676.16;5056759;28;20040;-80
2022/04/08 04:01:20;;;;;;;34.50;24.55;;;;;;;10.88;100.00;99680.31;5062706;28;20025;-77
2022/04/08 04:04:06;;;;;;;29.33;21.95;;;;;;;10.88;100.00;99691.63;5052523;28;20025;-80
2022/04/08 04:06:52;;;;;;;107.20;47.78;;;;;;;10.94;100.00;99694.06;5058155;28;20024;-79
2022/04/08 04:09:38;;;;;;;44.22;27.00;;;;;;;10.95;100.00;99702.75;5056703;28;20033;-79
2022/04/08 04:12:24;;;;;;;40.95;25.40;;;;;;;11.08;100.00;99702.28;5057441;28;20035;-81
2022/04/08 04:15:10;;;;;;;29.83;21.20;;;;;;;11.03;100.00;99717.31;5042301;28;20041;-80
2022/04/08 04:17:57;;;;;;;31.45;22.25;;;;;;;11.15;100.00;99723.88;5057478;28;20029;-80
2022/04/08 04:20:43;;;;;;;30.13;21.88;;;;;;;11.02;100.00;99725.22;5056916;28;20467;-79
2022/04/08 04:23:29;;;;;;;30.65;20.90;;;;;;;10.82;100.00;99725.94;5041796;28;20040;-79
2022/04/08 04:26:15;;;;;;;31.17;21.30;;;;;;;10.93;100.00;99733.41;5056545;28;20025;-79
2022/04/08 04:29:01;;;;;;;30.15;20.60;;;;;;;10.98;100.00;99740.22;5056602;28;20449;-79
2022/04/08 04:31:47;;;;;;;33.78;21.27;;;;;;;10.90;100.00;99742.25;5057126;28;20048;-80
2022/04/08 04:34:33;;;;;;;28.27;20.10;;;;;;;10.99;100.00;99747.16;5042146;28;20031;-79
2022/04/08 04:37:19;;;;;;;30.08;19.85;;;;;;;10.95;100.00;99740.31;5057209;28;20029;-79
2022/04/08 04:40:05;;;;;;;26.70;19.90;;;;;;;11.04;100.00;99755.72;5055712;28;20379;-79
2022/04/08 04:42:51;;;;;;;26.52;19.90;;;;;;;11.18;100.00;99758.72;5057165;28;20365;-79
2022/04/08 04:45:39;;;;;;;27.33;19.35;;;;;;;10.99;100.00;99762.88;5056217;28;20036;-79
2022/04/08 04:48:25;;;;;;;28.15;19.17;;;;;;;11.06;100.00;99766.16;5056285;28;20170;-79
2022/04/08 04:51:13;;;;;;;22.05;17.05;;;;;;;11.14;100.00;99772.84;5056233;28;20119;-79
2022/04/08 04:53:59;;;;;;;25.38;18.25;;;;;;;11.28;100.00;99773.22;5055432;28;20539;-79
2022/04/08 04:56:45;;;;;;;26.00;18.15;;;;;;;11.07;100.00;99775.72;5055921;28;20024;-79
2022/04/08 04:59:30;;;;;;;24.30;18.05;;;;;;;11.15;100.00;99782.41;5057725;28;20072;-79
2022/04/08 05:02:16;;;;;;;22.35;17.17;;;;;;;11.11;100.00;99779.94;5056763;28;20056;-80
2022/04/08 05:05:02;;;;;;;25.65;17.67;;;;;;;11.21;100.00;99778.72;5056752;28;20103;-80
2022/04/08 05:07:48;;;;;;;24.52;17.48;;;;;;;11.40;100.00;99785.88;5057302;28;20047;-79
2022/04/08 05:10:34;;;;;;;26.60;17.10;;;;;;;11.32;100.00;99784.44;5056907;28;20412;-80
2022/04/08 05:13:20;;;;;;;23.52;17.33;;;;;;;11.65;100.00;99791.16;5056294;28;20496;-80
2022/04/08 05:16:06;;;;;;;23.73;16.10;;;;;;;11.75;100.00;99793.38;5056286;28;20532;-80
2022/04/08 05:18:52;;;;;;;24.48;15.70;;;;;;;11.96;100.00;99791.72;5042000;28;20032;-81
2022/04/08 05:21:37;;;;;;;20.05;15.52;;;;;;;11.88;100.00;99801.63;5041435;28;20029;-80
2022/04/08 05:24:24;;;;;;;22.52;15.60;;;;;;;12.18;100.00;99803.97;5041323;28;20064;-80
2022/04/08 05:27:10;;;;;;;22.63;15.07;;;;;;;11.82;100.00;99805.34;5056565;28;20370;-79
2022/04/08 05:30:06;;;;;;;23.55;15.18;;;;;;;11.88;100.00;99806.88;5056845;28;20021;-80
2022/04/08 05:32:52;;;;;;;19.05;14.52;;;;;;;12.17;100.00;99806.66;5041980;28;20116;-80
2022/04/08 05:35:38;;;;;;;21.65;15.05;;;;;;;12.35;100.00;99811.19;5055824;28;20021;-80
2022/04/08 05:38:24;;;;;;;21.08;14.93;;;;;;;12.40;100.00;99815.34;5054766;28;20021;-79
2022/04/08 05:41:10;;;;;;;21.35;14.02;;;;;;;12.45;100.00;99820.41;5054564;28;20382;-80
2022/04/08 05:43:55;;;;;;;20.48;14.40;;;;;;;12.55;100.00;99819.16;5040711;28;20021;-79
2022/04/08 05:46:41;;;;;;;16.67;13.73;;;;;;;12.75;100.00;99830.59;5055793;28;20039;-79
2022/04/08 05:49:27;;;;;;;20.40;14.07;;;;;;;12.77;100.00;99831.38;5056091;28;20508;-80
2022/04/08 05:52:13;;;;;;;19.85;13.85;;;;;;;12.72;100.00;99835.09;5040290;28;20021;-80
2022/04/08 05:54:58;;;;;;;22.05;13.68;;;;;;;12.54;100.00;99844.56;5040097;28;20024;-80
2022/04/08 05:57:45;;;;;;;16.52;12.93;;;;;;;12.80;100.00;99854.03;5040946;28;20369;-81
2022/04/08 06:00:34;;;;;;;16.85;13.10;;;;;;;12.81;100.00;99861.88;5036823;28;20032;-77
2022/04/08 06:03:20;;;;;;;17.80;13.73;;;;;;;13.01;100.00;99859.31;5033782;28;20037;-75
2022/04/08 06:06:05;;;;;;;16.98;13.00;;;;;;;13.11;100.00;99871.16;5045769;28;20047;-75
2022/04/08 06:08:51;;;;;;;20.45;13.60;;;;;;;13.43;100.00;99865.41;5047074;28;20477;-77
2022/04/08 06:11:37;;;;;;;20.00;13.55;;;;;;;13.28;100.00;99855.56;5045071;28;20050;-78
2022/04/08 06:14:23;;;;;;;19.13;12.55;;;;;;;13.35;100.00;99856.16;5047821;28;20052;-80
2022/04/08 06:17:08;;;;;;;18.00;12.90;;;;;;;13.61;100.00;99864.66;5046854;28;20362;-78
2022/04/08 06:19:57;;;;;;;18.50;12.65;;;;;;;13.92;100.00;99883.47;5047276;28;20067;-79
2022/04/08 06:22:43;;;;;;;16.60;12.13;;;;;;;13.55;100.00;99890.38;5061119;28;20055;-74
2022/04/08 06:25:29;;;;;;;18.40;12.15;;;;;;;13.73;100.00;99894.84;5047233;28;20089;-78
2022/04/08 06:28:14;;;;;;;20.48;12.75;;;;;;;13.91;100.00;99892.25;5044032;28;20111;-77
2022/04/08 06:31:00;;;;;;;17.45;12.15;;;;;;;13.85;100.00;99891.66;5050865;28;20029;-79
2022/04/08 06:33:46;;;;;;;17.65;12.32;;;;;;;13.92;100.00;99896.63;5050364;28;21468;-79
2022/04/08 06:36:32;;;;;;;17.73;12.25;;;;;;;14.09;100.00;99903.75;5048677;28;20031;-78
2022/04/08 06:39:17;;;;;;;16.05;12.23;;;;;;;14.26;100.00;99888.94;5047671;28;20404;-77
2022/04/08 06:42:03;;;;;;;18.30;11.63;;;;;;;14.34;100.00;99899.13;5044951;28;20449;-79
2022/04/08 06:44:49;;;;;;;14.20;12.15;;;;;;;14.47;100.00;99926.66;5047156;28;20068;-77
2022/04/08 06:47:46;;;;;;;16.50;11.50;;;;;;;14.46;100.00;99920.50;5046335;28;20480;-79
2022/04/08 06:50:33;;;;;;;15.57;11.57;;;;;;;14.49;100.00;99930.91;5032045;28;20029;-77
2022/04/08 06:53:24;;;;;;;16.35;11.43;;;;;;;14.78;100.00;99922.50;5035200;28;20596;-80
2022/04/08 06:56:10;;;;;;;14.20;10.43;;;;;;;14.84;100.00;99938.03;5043086;28;20092;-74
2022/04/08 06:58:56;;;;;;;16.25;11.05;;;;;;;15.16;100.00;99936.50;5057339;28;20553;-83
2022/04/08 07:01:43;;;;;;;17.15;11.15;;;;;;;14.88;100.00;99939.59;5047228;28;20039;-79
2022/04/08 07:15:44;;;;;;;13.43;10.75;;;;;;;15.44;100.00;99963.31;5296231;22;20071;-80
2022/04/08 07:19:11;;;;;;;17.35;9.93;;;;;;;15.46;100.00;99961.44;5075516;28;20044;-79
2022/04/08 07:47:10;;;;;;;14.15;10.07;;;;;;;17.11;100.00;99980.84;4890698;29;20086;-81
2022/04/08 07:50:14;;;;;;;13.75;9.20;;;;;;;17.26;100.00;99988.81;4885904;29;20278;-81
2022/04/08 07:53:06;;;;;;;13.57;8.75;;;;;;;17.63;100.00;99982.28;4908009;29;20074;-81
2022/04/08 07:55:55;;;;;;;13.27;8.98;;;;;;;17.50;100.00;99992.75;4952538;28;20942;-79
2022/04/08 07:58:41;;;;;;;12.38;8.80;;;;;;;17.82;100.00;100001.47;5040820;28;20453;-79
2022/04/08 08:01:27;;;;;;;11.35;8.60;;;;;;;18.19;100.00;100011.63;5029288;28;20042;-82
2022/04/08 08:04:12;;;;;;;10.75;7.82;;;;;;;18.20;100.00;100018.63;5032421;28;20112;-78
2022/04/08 08:06:58;;;;;;;11.27;7.05;;;;;;;18.58;100.00;100015.41;5038529;28;20034;-79
2022/04/08 08:09:44;;;;;;;11.35;6.93;;;;;;;18.21;100.00;100010.59;5028276;28;20056;-79
2022/04/08 08:12:29;;;;;;;9.23;6.78;;;;;;;18.65;100.00;100005.28;5027944;28;20021;-80
2022/04/08 08:15:16;;;;;;;9.35;6.07;;;;;;;19.02;100.00;100000.22;5027612;28;20039;-79
2022/04/08 08:18:02;;;;;;;8.18;5.70;;;;;;;18.86;100.00;100009.25;5025480;28;20093;-78
2022/04/08 08:20:54;;;;;;;9.75;5.85;;;;;;;18.92;99.45;100008.84;5026627;28;20103;-77
2022/04/08 08:23:40;;;;;;;10.13;5.70;;;;;;;19.31;96.07;100013.47;5028886;28;20037;-77
2022/04/08 08:26:26;;;;;;;8.30;5.63;;;;;;;19.36;95.26;100011.41;5035992;28;20033;-79
2022/04/08 08:29:12;;;;;;;13.15;5.82;;;;;;;19.46;94.68;100004.53;5038050;28;20065;-78
2022/04/08 08:31:58;;;;;;;7.40;5.03;;;;;;;20.11;92.22;100015.22;5024586;28;20484;-76
2022/04/08 08:34:44;;;;;;;8.85;5.45;;;;;;;20.15;91.68;100029.13;5034832;28;20029;-76
2022/04/08 08:37:33;;;;;;;8.02;5.80;;;;;;;20.24;90.97;100032.03;5037270;28;20095;-76
2022/04/08 08:40:20;;;;;;;10.52;5.82;;;;;;;20.48;88.59;100029.50;5030979;28;20033;-77
2022/04/08 08:43:07;;;;;;;12.45;5.70;;;;;;;21.01;84.98;100038.16;5038270;28;20029;-78
2022/04/08 08:45:56;;;;;;;10.63;5.72;;;;;;;20.70;82.85;100035.91;5028754;28;20152;-77
2022/04/08 08:48:46;;;;;;;10.38;4.90;;;;;;;21.18;78.86;100031.63;5018885;28;20032;-70
2022/04/08 08:51:41;;;;;;;6.53;4.70;;;;;;;20.60;82.64;100029.53;5029047;28;20345;-78
2022/04/08 08:54:26;;;;;;;9.27;5.15;;;;;;;21.12;82.76;100026.72;5029321;28;20366;-78
2022/04/08 08:57:27;;;;;;;8.40;5.55;;;;;;;21.10;81.57;100029.50;5027564;28;20021;-78
2022/04/08 09:00:18;;;;;;;10.52;5.90;;;;;;;20.98;82.37;100014.38;5029299;28;20407;-78
2022/04/08 09:03:08;;;;;;;9.07;5.00;;;;;;;20.55;84.28;100026.34;5027790;28;20029;-78
2022/04/08 09:05:54;;;;;;;8.35;5.47;;;;;;;20.57;85.20;100018.25;5031501;28;20040;-78
2022/04/08 09:08:42;;;;;;;6.32;5.45;;;;;;;20.62;83.71;100032.06;5027642;28;20250;-76
2022/04/08 09:11:28;;;;;;;9.45;5.00;;;;;;;20.72;80.22;100036.66;5028552;28;20474;-77
2022/04/08 09:14:17;;;;;;;8.18;5.25;;;;;;;20.42;80.97;100038.78;5027035;28;20033;-77
2022/04/08 09:17:04;;;;;;;8.50;5.03;;;;;;;20.86;77.78;100039.19;5027626;28;20026;-77
2022/04/08 09:19:58;;;;;;;7.15;5.40;;;;;;;20.83;79.48;100042.09;5027677;28;20048;-76
2022/04/08 09:22:52;;;;;;;7.35;5.93;;;;;;;20.47;79.67;100044.63;5026058;28;20038;-77
2022/04/08 09:25:39;;;;;;;6.78;5.32;;;;;;;20.41;79.69;100042.38;5028607;28;20347;-78
2022/04/08 09:28:24;;;;;;;8.32;5.10;;;;;;;20.67;77.77;100051.25;5028676;28;20057;-79
2022/04/08 09:31:18;;;;;;;7.47;4.90;;;;;;;20.72;78.83;100047.31;5035901;28;20043;-78
2022/04/08 09:34:14;;;;;;;9.05;4.95;;;;;;;20.88;77.38;100045.28;5028701;28;20029;-77
2022/04/08 09:37:10;;;;;;;9.82;5.00;;;;;;;21.05;76.04;100047.63;5028016;28;20052;-78
2022/04/08 09:40:04;;;;;;;6.85;4.53;;;;;;;21.26;75.47;100047.94;5028980;28;20413;-76
2022/04/08 09:42:49;;;;;;;6.35;4.82;;;;;;;21.11;76.73;100041.03;5025699;28;20041;-77
2022/04/08 09:45:38;;;;;;;6.47;4.45;;;;;;;21.63;73.50;100039.81;5013648;28;20037;-77
2022/04/08 09:48:26;;;;;;;6.78;4.53;;;;;;;21.49;77.32;100053.28;5027324;28;20435;-78
2022/04/08 09:51:23;;;;;;;6.70;4.30;;;;;;;21.24;76.70;100057.81;5024938;28;20412;-76
2022/04/08 09:54:12;;;;;;;10.35;4.18;;;;;;;21.02;74.49;100052.34;5034953;28;20351;-78
2022/04/08 09:56:59;;;;;;;6.72;4.00;;;;;;;21.20;77.12;100048.34;5019389;28;20034;-78
2022/04/08 09:59:54;;;;;;;5.47;3.70;;;;;;;20.83;75.36;100051.88;5027441;28;20364;-78
2022/04/08 10:02:44;;;;;;;8.07;4.10;;;;;;;20.74;73.77;100048.03;5024705;28;20033;-78
2022/04/08 10:05:31;;;;;;;5.72;3.40;;;;;;;20.95;73.40;100037.72;5028540;28;20306;-77
2022/04/08 10:08:16;;;;;;;7.72;3.42;;;;;;;21.20;72.09;100045.69;5026553;28;20124;-77
2022/04/08 10:11:22;;;;;;;5.60;3.55;;;;;;;21.16;72.41;100038.88;5031375;28;20044;-76
2022/04/08 10:14:29;;;;;;;5.47;3.53;;;;;;;21.40;76.81;100037.97;5027269;28;20453;-76
2022/04/08 10:17:15;;;;;;;7.45;3.83;;;;;;;21.56;76.43;100043.03;5031099;28;20033;-77
2022/04/08 10:20:20;;;;;;;6.25;3.90;;;;;;;21.91;71.34;100039.50;5026324;28;20033;-76
2022/04/08 10:23:11;;;;;;;6.15;3.95;;;;;;;21.50;74.50;100033.66;5014357;28;20037;-75
2022/04/08 10:25:58;;;;;;;8.25;4.20;;;;;;;21.57;72.81;100039.41;5012944;28;20037;-77
2022/04/08 10:28:44;;;;;;;5.22;3.83;;;;;;;21.51;73.89;100038.06;5027155;28;20041;-79
2022/04/08 10:31:30;;;;;;;5.55;3.60;;;;;;;21.54;71.14;100047.63;5025834;28;20029;-78
2022/04/08 10:34:17;;;;;;;4.30;3.55;;;;;;;22.02;69.70;100049.38;5025488;28;20485;-77
2022/04/08 10:37:20;;;;;;;6.07;3.90;;;;;;;22.18;67.38;100048.09;5025743;28;20446;-76
2022/04/08 10:40:10;;;;;;;6.50;3.95;;;;;;;22.10;68.32;100045.16;5026070;28;20037;-76
2022/04/08 10:43:07;;;;;;;7.05;4.30;;;;;;;22.27;67.24;100060.75;5010178;28;20021;-77
2022/04/08 10:45:56;;;;;;;10.07;4.70;;;;;;;22.16;65.93;100063.38;5013860;28;20041;-77
2022/04/08 10:48:51;;;;;;;5.75;4.38;;;;;;;22.16;63.40;100060.72;5035445;28;20053;-78
2022/04/08 10:51:49;;;;;;;8.52;4.43;;;;;;;21.95;63.77;100064.13;5031763;28;20021;-79
2022/04/08 10:54:38;;;;;;;8.45;4.38;;;;;;;22.11;63.28;100064.69;5025795;28;20018;-78
2022/04/08 10:57:36;;;;;;;8.23;4.00;;;;;;;22.02;61.85;100071.56;5027711;28;20039;-78
2022/04/08 11:00:22;;;;;;;6.95;3.60;;;;;;;22.19;59.62;100076.47;5027592;28;20434;-77
2022/04/08 11:03:11;;;;;;;6.65;3.78;;;;;;;22.46;58.62;100074.44;5028362;28;20029;-81
2022/04/08 11:06:03;;;;;;;8.82;3.63;;;;;;;22.56;55.52;100078.13;5041591;28;20081;-81
2022/04/08 11:08:49;;;;;;;4.50;3.72;;;;;;;22.40;53.99;100076.69;5030671;28;20103;-79
2022/04/08 11:11:37;;;;;;;5.47;3.53;;;;;;;22.41;53.89;100071.25;5037902;28;20049;-78
2022/04/08 11:14:22;;;;;;;9.73;3.97;;;;;;;22.14;54.61;100070.66;5043383;28;20089;-76
2022/04/08 11:17:12;;;;;;;10.82;3.70;;;;;;;22.10;53.40;100066.50;5030765;28;20021;-76
2022/04/08 11:20:09;;;;;;;5.07;3.38;;;;;;;22.16;54.36;100074.06;5044248;28;20555;-76
2022/04/08 11:23:01;;;;;;;5.60;3.75;;;;;;;22.18;54.53;100076.63;5035530;28;20042;-77
2022/04/08 11:25:47;;;;;;;5.82;3.70;;;;;;;22.30;54.47;100073.88;5033134;28;20150;-79
2022/04/08 11:28:35;;;;;;;3.95;3.45;;;;;;;22.74;53.78;100082.03;5016595;28;20125;-80
2022/04/08 11:31:21;;;;;;;9.05;3.72;;;;;;;22.69;51.96;100078.88;5027512;28;20198;-79
2022/04/08 11:34:07;;;;;;;5.80;3.60;;;;;;;22.25;52.97;100077.84;5030101;28;20029;-80
2022/04/08 11:36:55;;;;;;;7.47;3.80;;;;;;;22.41;52.34;100081.91;5030894;28;20480;-80
2022/04/08 11:39:49;;;;;;;6.35;3.60;;;;;;;22.57;52.17;100076.28;5031123;28;20037;-80
2022/04/08 11:42:38;;;;;;;8.57;3.95;;;;;;;22.52;53.09;100076.66;5037781;28;20462;-79
2022/04/08 11:45:24;;;;;;;6.60;3.20;;;;;;;22.80;53.23;100081.56;5021406;28;20350;-80
2022/04/08 11:48:18;;;;;;;9.07;3.80;;;;;;;22.72;51.51;100083.97;5028928;28;20029;-80
2022/04/08 11:51:11;;;;;;;8.13;3.67;;;;;;;22.84;51.57;100079.50;5027985;28;20421;-77
2022/04/08 11:54:04;;;;;;;5.35;3.33;;;;;;;22.90;51.33;100068.31;5015602;28;20052;-78
2022/04/08 11:56:50;;;;;;;6.38;3.60;;;;;;;22.57;53.57;100069.13;5027568;28;20025;-71
2022/04/08 11:59:38;;;;;;;4.63;3.38;;;;;;;22.86;51.43;100067.72;5029748;28;20022;-74
2022/04/08 12:02:24;;;;;;;5.78;3.20;;;;;;;23.05;50.92;100062.66;5028702;28;20115;-73
2022/04/08 12:05:13;;;;;;;6.28;3.67;;;;;;;22.76;50.77;100064.09;5030014;28;20083;-75
2022/04/08 12:07:59;;;;;;;5.70;3.20;;;;;;;22.62;50.85;100064.28;5030287;28;20037;-74
2022/04/08 12:10:53;;;;;;;7.38;3.42;;;;;;;23.05;50.25;100059.09;5028084;28;20072;-74
2022/04/08 12:13:43;;;;;;;4.93;3.65;;;;;;;23.10;49.70;100068.47;5027760;28;20062;-76
2022/04/08 12:16:32;;;;;;;6.97;3.55;;;;;;;23.14;50.05;100072.59;5030895;28;20041;-79
2022/04/08 12:19:28;;;;;;;7.15;3.45;;;;;;;22.67;49.84;100067.44;5028329;28;20489;-79
2022/04/08 12:22:15;;;;;;;6.38;3.35;;;;;;;23.01;49.62;100071.88;5026358;28;20536;-76
2022/04/08 12:25:03;;;;;;;5.93;3.40;;;;;;;22.59;48.92;100063.69;5029019;28;20037;-79
2022/04/08 12:27:53;;;;;;;6.85;3.50;;;;;;;22.77;48.90;100067.59;5029039;28;20138;-76
2022/04/08 12:30:43;;;;;;;10.07;3.20;;;;;;;22.74;48.90;100067.81;5030149;28;20036;-78
2022/04/08 12:33:32;;;;;;;5.07;3.30;;;;;;;23.11;49.04;100072.00;5028482;28;20608;-78
2022/04/08 12:36:19;;;;;;;4.28;3.40;;;;;;;23.15;49.45;100057.44;5028302;28;20047;-77
2022/04/08 12:39:11;;;;;;;4.15;3.47;;;;;;;23.00;49.58;100063.97;5027024;28;20029;-79
2022/04/08 12:42:05;;;;;;;5.72;3.35;;;;;;;22.93;49.78;100063.59;5014282;28;20461;-77
2022/04/08 12:44:54;;;;;;;8.80;3.30;;;;;;;22.98;49.62;100063.22;5020379;28;20597;-79
2022/04/08 12:47:40;;;;;;;5.32;3.60;;;;;;;23.12;49.51;100052.31;5028269;28;20033;-77
2022/04/08 12:50:28;;;;;;;9.98;3.53;;;;;;;23.27;48.32;100051.97;5014603;28;20033;-77
2022/04/08 12:53:16;;;;;;;4.35;3.25;;;;;;;23.26;48.10;100049.41;5032296;28;20018;-77
2022/04/08 12:56:09;;;;;;;6.78;3.40;;;;;;;22.85;48.39;100039.31;5015710;28;20069;-78
2022/04/08 12:58:55;;;;;;;5.68;3.63;;;;;;;23.26;48.46;100041.41;5029006;28;20040;-77
2022/04/08 13:01:41;;;;;;;13.27;3.58;;;;;;;23.00;48.38;100054.16;5034314;28;20026;-73
2022/04/08 13:04:30;;;;;;;5.07;3.03;;;;;;;23.16;48.15;100048.44;5033190;28;20041;-80
2022/04/08 13:07:19;;;;;;;7.10;3.40;;;;;;;23.15;47.96;100042.22;5028585;28;20492;-77
2022/04/08 13:10:06;;;;;;;5.50;3.17;;;;;;;23.17;47.35;100052.78;5028698;28;20462;-80
2022/04/08 13:12:52;;;;;;;6.78;3.20;;;;;;;23.23;46.89;100053.19;5027350;28;20060;-79
2022/04/08 13:15:37;;;;;;;5.53;3.58;;;;;;;23.24;46.83;100041.50;5029358;28;20118;-78
2022/04/08 13:18:23;;;;;;;6.47;3.30;;;;;;;23.33;47.26;100051.50;5028083;28;20112;-78
2022/04/08 13:21:09;;;;;;;5.47;3.58;;;;;;;23.12;47.07;100025.59;5027475;28;20061;-79
2022/04/08 13:24:16;;;;;;;4.93;3.60;;;;;;;22.87;47.36;100037.34;5027018;28;20374;-78